Belle River, Canada
Current Conditions -  °F | °C
As of 10:00 PM on Friday 19 Dec 2014 (Local Time) from CYQG Reporting Station
Clear Clear  
Wind Chill: 25°   Ceiling: Unl
Heat Index: 25°   Visibility: 15mi
Dew Point: 19°   Wind: 3mph
Humidity: 80%   Direction: 340°NNW
Pressure: 30.28"   Gusts: NA
Location:  42.3°N, 82.72°W
Report Text: CYQG 200300Z 34003KT 15SM SKC M04/M07 A3028 RMK SLP264
Loading
Personal Weather Stations






























Interactive Weather Map New forecast layout! Learn more

10-Day Weather Forecast

Advertisements
Track Severe Weather on mobile